sensor_id;sensor_type;location;lat;lon;timestamp;P1;durP1;ratioP1;P2;durP2;ratioP2
69246;SDS011;56358;56.328;43.992;2023-07-29T00:00:22;12.73;;;7.75;;
69246;SDS011;56358;56.328;43.992;2023-07-29T00:02:23;14.40;;;8.43;;
69246;SDS011;56358;56.328;43.992;2023-07-29T00:04:24;12.77;;;7.80;;
69246;SDS011;56358;56.328;43.992;2023-07-29T00:06:24;11.38;;;8.18;;
69246;SDS011;56358;56.328;43.992;2023-07-29T00:08:25;13.73;;;7.63;;
69246;SDS011;56358;56.328;43.992;2023-07-29T00:10:26;12.73;;;7.18;;
69246;SDS011;56358;56.328;43.992;2023-07-29T00:12:27;11.10;;;6.82;;
69246;SDS011;56358;56.328;43.992;2023-07-29T00:14:28;12.02;;;6.57;;
69246;SDS011;56358;56.328;43.992;2023-07-29T00:16:28;13.02;;;6.32;;
69246;SDS011;56358;56.328;43.992;2023-07-29T00:18:29;10.05;;;5.95;;
69246;SDS011;56358;56.328;43.992;2023-07-29T00:20:29;7.55;;;5.57;;
69246;SDS011;56358;56.328;43.992;2023-07-29T00:22:30;10.27;;;5.63;;
69246;SDS011;56358;56.328;43.992;2023-07-29T00:24:31;11.82;;;6.82;;
69246;SDS011;56358;56.328;43.992;2023-07-29T00:26:31;10.52;;;5.90;;
69246;SDS011;56358;56.328;43.992;2023-07-29T00:28:32;8.77;;;5.55;;
69246;SDS011;56358;56.328;43.992;2023-07-29T00:30:33;8.65;;;4.95;;
69246;SDS011;56358;56.328;43.992;2023-07-29T00:32:35;15.52;;;5.93;;
69246;SDS011;56358;56.328;43.992;2023-07-29T00:34:35;8.32;;;4.68;;
69246;SDS011;56358;56.328;43.992;2023-07-29T00:36:36;6.05;;;4.45;;
69246;SDS011;56358;56.328;43.992;2023-07-29T00:38:37;7.07;;;4.78;;
69246;SDS011;56358;56.328;43.992;2023-07-29T00:40:37;10.98;;;6.18;;
69246;SDS011;56358;56.328;43.992;2023-07-29T00:42:38;9.38;;;5.28;;
69246;SDS011;56358;56.328;43.992;2023-07-29T00:44:39;11.38;;;5.18;;
69246;SDS011;56358;56.328;43.992;2023-07-29T00:46:39;7.55;;;4.43;;
69246;SDS011;56358;56.328;43.992;2023-07-29T00:48:41;12.27;;;4.40;;
69246;SDS011;56358;56.328;43.992;2023-07-29T00:50:42;8.02;;;4.72;;
69246;SDS011;56358;56.328;43.992;2023-07-29T00:52:43;10.07;;;4.78;;
69246;SDS011;56358;56.328;43.992;2023-07-29T00:54:44;11.02;;;4.50;;
69246;SDS011;56358;56.328;43.992;2023-07-29T00:56:45;11.00;;;5.07;;
69246;SDS011;56358;56.328;43.992;2023-07-29T00:58:45;7.32;;;4.40;;
69246;SDS011;56358;56.328;43.992;2023-07-29T01:00:46;7.65;;;4.50;;
69246;SDS011;56358;56.328;43.992;2023-07-29T01:02:47;8.82;;;4.60;;
69246;SDS011;56358;56.328;43.992;2023-07-29T01:04:58;9.48;;;5.00;;
69246;SDS011;56358;56.328;43.992;2023-07-29T01:09:04;11.02;;;4.68;;
69246;SDS011;56358;56.328;43.992;2023-07-29T01:13:11;7.50;;;4.25;;
69246;SDS011;56358;56.328;43.992;2023-07-29T01:17:23;6.57;;;4.00;;
69246;SDS011;56358;56.328;43.992;2023-07-29T01:21:47;5.35;;;4.00;;
69246;SDS011;56358;56.328;43.992;2023-07-29T01:23:51;7.70;;;4.07;;
69246;SDS011;56358;56.328;43.992;2023-07-29T01:25:53;9.13;;;4.70;;
69246;SDS011;56358;56.328;43.992;2023-07-29T01:27:54;6.97;;;4.15;;
69246;SDS011;56358;56.328;43.992;2023-07-29T01:29:56;8.25;;;4.53;;
69246;SDS011;56358;56.328;43.992;2023-07-29T01:32:00;7.25;;;4.32;;
69246;SDS011;56358;56.328;43.992;2023-07-29T01:34:16;6.45;;;3.75;;
69246;SDS011;56358;56.328;43.992;2023-07-29T01:36:27;6.93;;;4.28;;
69246;SDS011;56358;56.328;43.992;2023-07-29T01:38:35;7.07;;;4.30;;
69246;SDS011;56358;56.328;43.992;2023-07-29T01:40:36;9.60;;;4.30;;
69246;SDS011;56358;56.328;43.992;2023-07-29T01:42:37;8.52;;;4.30;;
69246;SDS011;56358;56.328;43.992;2023-07-29T01:44:38;9.23;;;4.63;;
69246;SDS011;56358;56.328;43.992;2023-07-29T01:46:39;8.90;;;4.60;;
69246;SDS011;56358;56.328;43.992;2023-07-29T01:48:40;7.80;;;4.28;;
69246;SDS011;56358;56.328;43.992;2023-07-29T01:50:41;6.07;;;4.28;;
69246;SDS011;56358;56.328;43.992;2023-07-29T01:52:41;7.13;;;4.45;;
69246;SDS011;56358;56.328;43.992;2023-07-29T01:54:42;7.13;;;4.80;;
69246;SDS011;56358;56.328;43.992;2023-07-29T01:56:43;8.07;;;4.20;;
69246;SDS011;56358;56.328;43.992;2023-07-29T01:58:43;8.25;;;4.40;;
69246;SDS011;56358;56.328;43.992;2023-07-29T02:00:44;7.47;;;4.50;;
69246;SDS011;56358;56.328;43.992;2023-07-29T02:02:45;10.27;;;5.05;;
69246;SDS011;56358;56.328;43.992;2023-07-29T02:04:46;6.35;;;4.30;;
69246;SDS011;56358;56.328;43.992;2023-07-29T02:06:51;6.63;;;4.18;;
69246;SDS011;56358;56.328;43.992;2023-07-29T02:08:52;9.68;;;4.45;;
69246;SDS011;56358;56.328;43.992;2023-07-29T02:10:53;9.00;;;4.55;;
69246;SDS011;56358;56.328;43.992;2023-07-29T02:12:54;9.73;;;4.80;;
69246;SDS011;56358;56.328;43.992;2023-07-29T02:14:54;9.05;;;4.50;;
69246;SDS011;56358;56.328;43.992;2023-07-29T02:16:55;8.45;;;4.47;;
69246;SDS011;56358;56.328;43.992;2023-07-29T02:19:16;7.88;;;4.63;;
69246;SDS011;56358;56.328;43.992;2023-07-29T02:21:16;9.75;;;4.85;;
69246;SDS011;56358;56.328;43.992;2023-07-29T02:23:17;7.20;;;4.85;;
69246;SDS011;56358;56.328;43.992;2023-07-29T02:25:18;9.15;;;4.82;;
69246;SDS011;56358;56.328;43.992;2023-07-29T02:27:20;10.45;;;5.25;;
69246;SDS011;56358;56.328;43.992;2023-07-29T02:29:21;9.85;;;5.20;;
69246;SDS011;56358;56.328;43.992;2023-07-29T02:31:22;7.45;;;5.20;;
69246;SDS011;56358;56.328;43.992;2023-07-29T02:33:24;12.73;;;5.03;;
69246;SDS011;56358;56.328;43.992;2023-07-29T02:35:25;8.98;;;4.72;;
69246;SDS011;56358;56.328;43.992;2023-07-29T02:37:26;10.48;;;4.95;;
69246;SDS011;56358;56.328;43.992;2023-07-29T02:39:26;9.65;;;5.20;;
69246;SDS011;56358;56.328;43.992;2023-07-29T02:41:27;9.73;;;5.28;;
69246;SDS011;56358;56.328;43.992;2023-07-29T02:43:28;7.25;;;4.78;;
69246;SDS011;56358;56.328;43.992;2023-07-29T02:45:29;9.52;;;4.90;;
69246;SDS011;56358;56.328;43.992;2023-07-29T02:47:29;10.95;;;5.45;;
69246;SDS011;56358;56.328;43.992;2023-07-29T02:49:30;9.63;;;5.25;;
69246;SDS011;56358;56.328;43.992;2023-07-29T02:51:31;8.45;;;5.15;;
69246;SDS011;56358;56.328;43.992;2023-07-29T02:53:32;11.93;;;5.13;;
69246;SDS011;56358;56.328;43.992;2023-07-29T02:55:32;11.57;;;5.93;;
69246;SDS011;56358;56.328;43.992;2023-07-29T02:57:33;8.77;;;5.07;;
69246;SDS011;56358;56.328;43.992;2023-07-29T02:59:34;9.57;;;5.18;;
69246;SDS011;56358;56.328;43.992;2023-07-29T03:01:34;9.50;;;5.18;;
69246;SDS011;56358;56.328;43.992;2023-07-29T03:03:35;10.13;;;5.43;;
69246;SDS011;56358;56.328;43.992;2023-07-29T03:05:36;9.88;;;6.05;;
69246;SDS011;56358;56.328;43.992;2023-07-29T03:07:37;9.48;;;6.15;;
69246;SDS011;56358;56.328;43.992;2023-07-29T03:09:38;13.50;;;6.80;;
69246;SDS011;56358;56.328;43.992;2023-07-29T03:11:39;12.80;;;6.97;;
69246;SDS011;56358;56.328;43.992;2023-07-29T03:13:40;10.65;;;6.85;;
69246;SDS011;56358;56.328;43.992;2023-07-29T03:15:41;11.85;;;7.20;;
69246;SDS011;56358;56.328;43.992;2023-07-29T03:17:42;12.20;;;6.95;;
69246;SDS011;56358;56.328;43.992;2023-07-29T03:19:42;12.18;;;6.88;;
69246;SDS011;56358;56.328;43.992;2023-07-29T03:21:43;9.90;;;6.47;;
69246;SDS011;56358;56.328;43.992;2023-07-29T03:23:44;10.10;;;6.35;;
69246;SDS011;56358;56.328;43.992;2023-07-29T03:25:47;12.95;;;6.70;;
69246;SDS011;56358;56.328;43.992;2023-07-29T03:27:49;10.88;;;6.53;;
69246;SDS011;56358;56.328;43.992;2023-07-29T03:29:50;12.05;;;6.60;;
69246;SDS011;56358;56.328;43.992;2023-07-29T03:31:50;10.18;;;6.32;;
69246;SDS011;56358;56.328;43.992;2023-07-29T03:33:51;9.77;;;6.63;;
69246;SDS011;56358;56.328;43.992;2023-07-29T03:35:52;11.18;;;6.55;;
69246;SDS011;56358;56.328;43.992;2023-07-29T03:37:53;12.52;;;6.93;;
69246;SDS011;56358;56.328;43.992;2023-07-29T03:39:54;11.20;;;6.93;;
69246;SDS011;56358;56.328;43.992;2023-07-29T03:41:54;10.10;;;6.55;;
69246;SDS011;56358;56.328;43.992;2023-07-29T03:43:55;12.07;;;6.70;;
69246;SDS011;56358;56.328;43.992;2023-07-29T03:45:56;13.13;;;6.65;;
69246;SDS011;56358;56.328;43.992;2023-07-29T03:47:56;12.63;;;6.68;;
69246;SDS011;56358;56.328;43.992;2023-07-29T03:49:57;12.85;;;6.60;;
69246;SDS011;56358;56.328;43.992;2023-07-29T03:51:58;8.70;;;6.32;;
69246;SDS011;56358;56.328;43.992;2023-07-29T03:53:59;10.68;;;6.90;;
69246;SDS011;56358;56.328;43.992;2023-07-29T03:55:59;10.57;;;6.00;;
69246;SDS011;56358;56.328;43.992;2023-07-29T03:58:00;9.77;;;6.40;;
69246;SDS011;56358;56.328;43.992;2023-07-29T04:00:03;10.93;;;6.13;;
69246;SDS011;56358;56.328;43.992;2023-07-29T04:04:06;12.07;;;6.78;;
69246;SDS011;56358;56.328;43.992;2023-07-29T04:06:07;9.93;;;6.25;;
69246;SDS011;56358;56.328;43.992;2023-07-29T04:08:07;11.25;;;6.32;;
69246;SDS011;56358;56.328;43.992;2023-07-29T04:10:08;14.65;;;6.35;;
69246;SDS011;56358;56.328;43.992;2023-07-29T04:12:09;11.63;;;6.57;;
69246;SDS011;56358;56.328;43.992;2023-07-29T04:14:10;9.43;;;6.07;;
69246;SDS011;56358;56.328;43.992;2023-07-29T04:16:11;23.20;;;6.43;;
69246;SDS011;56358;56.328;43.992;2023-07-29T04:18:11;12.13;;;6.25;;
69246;SDS011;56358;56.328;43.992;2023-07-29T04:20:12;11.60;;;5.68;;
69246;SDS011;56358;56.328;43.992;2023-07-29T04:22:14;14.63;;;6.03;;
69246;SDS011;56358;56.328;43.992;2023-07-29T04:24:16;9.23;;;5.10;;
69246;SDS011;56358;56.328;43.992;2023-07-29T04:26:16;9.75;;;4.75;;
69246;SDS011;56358;56.328;43.992;2023-07-29T04:28:17;7.70;;;4.40;;
69246;SDS011;56358;56.328;43.992;2023-07-29T04:30:18;7.18;;;4.53;;
69246;SDS011;56358;56.328;43.992;2023-07-29T04:32:18;6.47;;;4.50;;
69246;SDS011;56358;56.328;43.992;2023-07-29T04:34:19;6.75;;;4.07;;
69246;SDS011;56358;56.328;43.992;2023-07-29T04:36:20;9.00;;;4.30;;
69246;SDS011;56358;56.328;43.992;2023-07-29T04:38:21;6.25;;;4.20;;
69246;SDS011;56358;56.328;43.992;2023-07-29T04:40:21;6.70;;;3.95;;
69246;SDS011;56358;56.328;43.992;2023-07-29T04:42:23;11.05;;;4.97;;
69246;SDS011;56358;56.328;43.992;2023-07-29T04:44:23;6.53;;;4.15;;
69246;SDS011;56358;56.328;43.992;2023-07-29T04:46:24;14.18;;;5.38;;
69246;SDS011;56358;56.328;43.992;2023-07-29T04:48:25;7.43;;;4.40;;
69246;SDS011;56358;56.328;43.992;2023-07-29T04:50:25;8.80;;;4.65;;
69246;SDS011;56358;56.328;43.992;2023-07-29T04:52:26;10.43;;;4.55;;
69246;SDS011;56358;56.328;43.992;2023-07-29T04:54:27;6.82;;;4.25;;
69246;SDS011;56358;56.328;43.992;2023-07-29T04:56:28;13.70;;;5.10;;
69246;SDS011;56358;56.328;43.992;2023-07-29T04:58:28;13.32;;;5.15;;
69246;SDS011;56358;56.328;43.992;2023-07-29T05:00:30;6.35;;;4.65;;
69246;SDS011;56358;56.328;43.992;2023-07-29T05:02:31;5.28;;;4.30;;
69246;SDS011;56358;56.328;43.992;2023-07-29T05:04:31;7.55;;;4.25;;
69246;SDS011;56358;56.328;43.992;2023-07-29T05:06:32;8.15;;;4.38;;
69246;SDS011;56358;56.328;43.992;2023-07-29T05:08:33;6.97;;;4.60;;
69246;SDS011;56358;56.328;43.992;2023-07-29T05:10:34;14.50;;;4.97;;
69246;SDS011;56358;56.328;43.992;2023-07-29T05:12:35;7.93;;;4.32;;
69246;SDS011;56358;56.328;43.992;2023-07-29T05:14:35;6.93;;;4.40;;
69246;SDS011;56358;56.328;43.992;2023-07-29T05:16:36;9.77;;;4.85;;
69246;SDS011;56358;56.328;43.992;2023-07-29T05:18:37;12.75;;;5.22;;
69246;SDS011;56358;56.328;43.992;2023-07-29T05:20:37;11.02;;;5.43;;
69246;SDS011;56358;56.328;43.992;2023-07-29T05:22:38;11.48;;;5.63;;
69246;SDS011;56358;56.328;43.992;2023-07-29T05:24:38;8.73;;;5.40;;
69246;SDS011;56358;56.328;43.992;2023-07-29T05:26:39;11.38;;;5.40;;
69246;SDS011;56358;56.328;43.992;2023-07-29T05:28:40;17.02;;;5.78;;
69246;SDS011;56358;56.328;43.992;2023-07-29T05:30:40;14.70;;;6.05;;
69246;SDS011;56358;56.328;43.992;2023-07-29T05:32:43;10.10;;;5.30;;
69246;SDS011;56358;56.328;43.992;2023-07-29T05:34:44;12.48;;;5.70;;
69246;SDS011;56358;56.328;43.992;2023-07-29T05:36:45;11.48;;;5.50;;
69246;SDS011;56358;56.328;43.992;2023-07-29T05:38:45;12.77;;;5.18;;
69246;SDS011;56358;56.328;43.992;2023-07-29T05:40:47;8.75;;;5.22;;
69246;SDS011;56358;56.328;43.992;2023-07-29T05:42:48;11.65;;;5.88;;
69246;SDS011;56358;56.328;43.992;2023-07-29T05:44:49;9.93;;;5.35;;
69246;SDS011;56358;56.328;43.992;2023-07-29T05:46:50;12.65;;;5.72;;
69246;SDS011;56358;56.328;43.992;2023-07-29T05:48:51;15.52;;;6.40;;
69246;SDS011;56358;56.328;43.992;2023-07-29T05:50:52;15.88;;;5.88;;
69246;SDS011;56358;56.328;43.992;2023-07-29T05:52:52;13.75;;;6.00;;
69246;SDS011;56358;56.328;43.992;2023-07-29T05:54:54;17.52;;;6.22;;
69246;SDS011;56358;56.328;43.992;2023-07-29T05:56:54;26.10;;;6.40;;
69246;SDS011;56358;56.328;43.992;2023-07-29T05:58:55;18.02;;;5.40;;
69246;SDS011;56358;56.328;43.992;2023-07-29T06:00:56;10.45;;;5.28;;
69246;SDS011;56358;56.328;43.992;2023-07-29T06:02:57;9.40;;;5.40;;
69246;SDS011;56358;56.328;43.992;2023-07-29T06:04:58;11.82;;;5.40;;
69246;SDS011;56358;56.328;43.992;2023-07-29T06:06:58;7.35;;;4.47;;
69246;SDS011;56358;56.328;43.992;2023-07-29T06:08:59;12.05;;;4.55;;
69246;SDS011;56358;56.328;43.992;2023-07-29T06:11:00;7.43;;;4.35;;
69246;SDS011;56358;56.328;43.992;2023-07-29T06:13:00;7.22;;;5.00;;
69246;SDS011;56358;56.328;43.992;2023-07-29T06:15:01;8.25;;;4.35;;
69246;SDS011;56358;56.328;43.992;2023-07-29T06:17:04;7.90;;;4.43;;
69246;SDS011;56358;56.328;43.992;2023-07-29T06:19:07;9.23;;;5.28;;
69246;SDS011;56358;56.328;43.992;2023-07-29T06:21:09;8.13;;;4.70;;
69246;SDS011;56358;56.328;43.992;2023-07-29T06:23:12;7.28;;;4.55;;
69246;SDS011;56358;56.328;43.992;2023-07-29T06:25:13;10.40;;;5.07;;
69246;SDS011;56358;56.328;43.992;2023-07-29T06:27:13;8.35;;;4.70;;
69246;SDS011;56358;56.328;43.992;2023-07-29T06:29:14;13.15;;;5.60;;
69246;SDS011;56358;56.328;43.992;2023-07-29T06:31:15;13.25;;;5.72;;
69246;SDS011;56358;56.328;43.992;2023-07-29T06:33:15;11.32;;;5.57;;
69246;SDS011;56358;56.328;43.992;2023-07-29T06:35:16;7.88;;;5.07;;
69246;SDS011;56358;56.328;43.992;2023-07-29T06:37:17;10.73;;;5.32;;
69246;SDS011;56358;56.328;43.992;2023-07-29T06:39:18;6.00;;;4.55;;
69246;SDS011;56358;56.328;43.992;2023-07-29T06:41:18;8.90;;;5.60;;
69246;SDS011;56358;56.328;43.992;2023-07-29T06:43:19;9.57;;;5.47;;
69246;SDS011;56358;56.328;43.992;2023-07-29T06:45:19;7.82;;;5.25;;
69246;SDS011;56358;56.328;43.992;2023-07-29T06:47:20;10.10;;;5.18;;
69246;SDS011;56358;56.328;43.992;2023-07-29T06:49:21;11.50;;;5.20;;
69246;SDS011;56358;56.328;43.992;2023-07-29T06:51:21;14.88;;;5.70;;
69246;SDS011;56358;56.328;43.992;2023-07-29T06:53:22;10.13;;;6.10;;
69246;SDS011;56358;56.328;43.992;2023-07-29T06:55:23;9.70;;;5.68;;
69246;SDS011;56358;56.328;43.992;2023-07-29T06:57:24;9.85;;;6.07;;
69246;SDS011;56358;56.328;43.992;2023-07-29T06:59:24;11.43;;;5.45;;
69246;SDS011;56358;56.328;43.992;2023-07-29T07:01:26;9.55;;;5.80;;
69246;SDS011;56358;56.328;43.992;2023-07-29T07:03:26;7.72;;;5.50;;
69246;SDS011;56358;56.328;43.992;2023-07-29T07:05:27;13.82;;;5.47;;
69246;SDS011;56358;56.328;43.992;2023-07-29T07:07:28;8.05;;;5.38;;
69246;SDS011;56358;56.328;43.992;2023-07-29T07:09:28;8.98;;;5.63;;
69246;SDS011;56358;56.328;43.992;2023-07-29T07:11:29;11.35;;;5.85;;
69246;SDS011;56358;56.328;43.992;2023-07-29T07:13:30;9.38;;;6.00;;
69246;SDS011;56358;56.328;43.992;2023-07-29T07:15:31;8.23;;;5.85;;
69246;SDS011;56358;56.328;43.992;2023-07-29T07:17:32;11.15;;;6.53;;
69246;SDS011;56358;56.328;43.992;2023-07-29T07:19:32;7.90;;;5.65;;
69246;SDS011;56358;56.328;43.992;2023-07-29T07:21:33;8.38;;;5.65;;
69246;SDS011;56358;56.328;43.992;2023-07-29T07:23:34;10.93;;;5.80;;
69246;SDS011;56358;56.328;43.992;2023-07-29T07:25:35;9.82;;;6.53;;
69246;SDS011;56358;56.328;43.992;2023-07-29T07:27:36;10.40;;;6.18;;
69246;SDS011;56358;56.328;43.992;2023-07-29T07:29:37;9.30;;;5.95;;
69246;SDS011;56358;56.328;43.992;2023-07-29T07:31:37;13.80;;;6.15;;
69246;SDS011;56358;56.328;43.992;2023-07-29T07:33:38;9.07;;;5.90;;
69246;SDS011;56358;56.328;43.992;2023-07-29T07:35:39;13.00;;;6.50;;
69246;SDS011;56358;56.328;43.992;2023-07-29T07:37:40;9.38;;;6.15;;
69246;SDS011;56358;56.328;43.992;2023-07-29T07:39:40;11.60;;;6.30;;
69246;SDS011;56358;56.328;43.992;2023-07-29T07:41:41;8.52;;;6.13;;
69246;SDS011;56358;56.328;43.992;2023-07-29T07:43:42;9.68;;;6.22;;
69246;SDS011;56358;56.328;43.992;2023-07-29T07:45:43;9.80;;;6.28;;
69246;SDS011;56358;56.328;43.992;2023-07-29T07:47:43;7.75;;;6.15;;
69246;SDS011;56358;56.328;43.992;2023-07-29T07:49:44;8.27;;;5.43;;
69246;SDS011;56358;56.328;43.992;2023-07-29T07:51:45;8.60;;;6.10;;
69246;SDS011;56358;56.328;43.992;2023-07-29T07:53:46;9.93;;;5.80;;
69246;SDS011;56358;56.328;43.992;2023-07-29T07:55:47;13.45;;;7.00;;
69246;SDS011;56358;56.328;43.992;2023-07-29T07:57:47;9.98;;;5.47;;
69246;SDS011;56358;56.328;43.992;2023-07-29T07:59:48;10.80;;;5.28;;
69246;SDS011;56358;56.328;43.992;2023-07-29T08:01:49;14.25;;;5.97;;
69246;SDS011;56358;56.328;43.992;2023-07-29T08:03:49;9.65;;;5.25;;
69246;SDS011;56358;56.328;43.992;2023-07-29T08:05:50;7.40;;;5.22;;
69246;SDS011;56358;56.328;43.992;2023-07-29T08:07:51;10.10;;;5.70;;
69246;SDS011;56358;56.328;43.992;2023-07-29T08:09:51;9.75;;;5.90;;
69246;SDS011;56358;56.328;43.992;2023-07-29T08:11:52;11.73;;;6.68;;
69246;SDS011;56358;56.328;43.992;2023-07-29T08:13:52;10.93;;;5.63;;
69246;SDS011;56358;56.328;43.992;2023-07-29T08:15:53;12.25;;;5.40;;
69246;SDS011;56358;56.328;43.992;2023-07-29T08:17:54;7.80;;;5.60;;
69246;SDS011;56358;56.328;43.992;2023-07-29T08:19:54;7.30;;;5.22;;
69246;SDS011;56358;56.328;43.992;2023-07-29T08:21:55;9.13;;;5.57;;
69246;SDS011;56358;56.328;43.992;2023-07-29T08:23:56;11.30;;;5.70;;
69246;SDS011;56358;56.328;43.992;2023-07-29T08:25:57;10.52;;;5.88;;
69246;SDS011;56358;56.328;43.992;2023-07-29T08:28:02;9.15;;;5.60;;
69246;SDS011;56358;56.328;43.992;2023-07-29T08:30:03;9.40;;;5.72;;
69246;SDS011;56358;56.328;43.992;2023-07-29T08:34:06;10.90;;;5.95;;
69246;SDS011;56358;56.328;43.992;2023-07-29T08:36:07;12.10;;;5.45;;
69246;SDS011;56358;56.328;43.992;2023-07-29T08:38:08;7.95;;;5.10;;
69246;SDS011;56358;56.328;43.992;2023-07-29T08:40:08;8.50;;;5.05;;
69246;SDS011;56358;56.328;43.992;2023-07-29T08:42:11;10.50;;;5.65;;
69246;SDS011;56358;56.328;43.992;2023-07-29T08:44:12;14.25;;;6.25;;
69246;SDS011;56358;56.328;43.992;2023-07-29T08:46:24;8.80;;;5.57;;
69246;SDS011;56358;56.328;43.992;2023-07-29T08:48:41;9.85;;;5.57;;
69246;SDS011;56358;56.328;43.992;2023-07-29T08:50:43;12.65;;;6.30;;
69246;SDS011;56358;56.328;43.992;2023-07-29T08:52:44;7.70;;;5.25;;
69246;SDS011;56358;56.328;43.992;2023-07-29T08:54:46;8.85;;;4.82;;
69246;SDS011;56358;56.328;43.992;2023-07-29T08:56:47;12.77;;;5.35;;
69246;SDS011;56358;56.328;43.992;2023-07-29T08:58:49;9.73;;;5.20;;
69246;SDS011;56358;56.328;43.992;2023-07-29T09:00:50;8.80;;;5.57;;
69246;SDS011;56358;56.328;43.992;2023-07-29T09:02:51;8.10;;;5.07;;
69246;SDS011;56358;56.328;43.992;2023-07-29T09:04:52;8.43;;;5.10;;
69246;SDS011;56358;56.328;43.992;2023-07-29T09:06:52;9.15;;;5.50;;
69246;SDS011;56358;56.328;43.992;2023-07-29T09:08:55;8.77;;;4.95;;
69246;SDS011;56358;56.328;43.992;2023-07-29T09:10:59;10.85;;;5.50;;
69246;SDS011;56358;56.328;43.992;2023-07-29T09:13:00;7.47;;;5.00;;
69246;SDS011;56358;56.328;43.992;2023-07-29T09:15:03;7.57;;;5.13;;
69246;SDS011;56358;56.328;43.992;2023-07-29T09:17:06;8.15;;;5.20;;
69246;SDS011;56358;56.328;43.992;2023-07-29T09:21:09;8.52;;;5.50;;
69246;SDS011;56358;56.328;43.992;2023-07-29T09:23:10;11.10;;;5.70;;
69246;SDS011;56358;56.328;43.992;2023-07-29T09:25:11;9.73;;;5.22;;
69246;SDS011;56358;56.328;43.992;2023-07-29T09:27:25;6.97;;;4.57;;
69246;SDS011;56358;56.328;43.992;2023-07-29T09:29:27;11.25;;;5.10;;
69246;SDS011;56358;56.328;43.992;2023-07-29T09:31:29;7.00;;;4.57;;
69246;SDS011;56358;56.328;43.992;2023-07-29T09:33:32;10.32;;;5.57;;
69246;SDS011;56358;56.328;43.992;2023-07-29T09:35:36;8.40;;;4.97;;
69246;SDS011;56358;56.328;43.992;2023-07-29T09:37:38;7.82;;;5.18;;
69246;SDS011;56358;56.328;43.992;2023-07-29T09:39:40;8.20;;;5.20;;
69246;SDS011;56358;56.328;43.992;2023-07-29T09:41:47;9.50;;;5.32;;
69246;SDS011;56358;56.328;43.992;2023-07-29T09:43:54;9.15;;;5.03;;
69246;SDS011;56358;56.328;43.992;2023-07-29T09:46:02;10.00;;;5.10;;
69246;SDS011;56358;56.328;43.992;2023-07-29T09:48:03;9.23;;;5.10;;
69246;SDS011;56358;56.328;43.992;2023-07-29T09:50:09;8.27;;;4.90;;
69246;SDS011;56358;56.328;43.992;2023-07-29T09:52:10;10.25;;;6.03;;
69246;SDS011;56358;56.328;43.992;2023-07-29T09:54:10;7.97;;;4.65;;
69246;SDS011;56358;56.328;43.992;2023-07-29T09:58:14;9.02;;;5.35;;
69246;SDS011;56358;56.328;43.992;2023-07-29T10:00:26;8.65;;;5.22;;
69246;SDS011;56358;56.328;43.992;2023-07-29T10:02:28;10.23;;;6.68;;
69246;SDS011;56358;56.328;43.992;2023-07-29T10:06:31;6.90;;;5.30;;
69246;SDS011;56358;56.328;43.992;2023-07-29T10:08:34;8.15;;;5.28;;
69246;SDS011;56358;56.328;43.992;2023-07-29T10:10:44;8.25;;;5.60;;
69246;SDS011;56358;56.328;43.992;2023-07-29T10:12:45;7.40;;;5.78;;
69246;SDS011;56358;56.328;43.992;2023-07-29T10:14:46;9.15;;;5.55;;
69246;SDS011;56358;56.328;43.992;2023-07-29T10:16:48;6.80;;;5.50;;
69246;SDS011;56358;56.328;43.992;2023-07-29T10:18:49;9.02;;;4.82;;
69246;SDS011;56358;56.328;43.992;2023-07-29T10:20:53;7.53;;;4.50;;
69246;SDS011;56358;56.328;43.992;2023-07-29T10:22:56;10.43;;;4.95;;
69246;SDS011;56358;56.328;43.992;2023-07-29T10:25:02;13.40;;;4.90;;
69246;SDS011;56358;56.328;43.992;2023-07-29T10:27:06;7.50;;;4.00;;
69246;SDS011;56358;56.328;43.992;2023-07-29T10:29:09;27.65;;;4.20;;
69246;SDS011;56358;56.328;43.992;2023-07-29T10:31:15;27.42;;;5.80;;
69246;SDS011;56358;56.328;43.992;2023-07-29T10:33:17;22.58;;;3.30;;
69246;SDS011;56358;56.328;43.992;2023-07-29T10:35:17;24.58;;;4.93;;
69246;SDS011;56358;56.328;43.992;2023-07-29T10:37:19;11.93;;;3.33;;
69246;SDS011;56358;56.328;43.992;2023-07-29T10:39:20;15.55;;;4.63;;
69246;SDS011;56358;56.328;43.992;2023-07-29T10:41:21;11.40;;;3.13;;
69246;SDS011;56358;56.328;43.992;2023-07-29T10:45:39;12.73;;;5.63;;
69246;SDS011;56358;56.328;43.992;2023-07-29T10:47:41;10.32;;;5.55;;
69246;SDS011;56358;56.328;43.992;2023-07-29T10:49:42;13.60;;;6.68;;
69246;SDS011;56358;56.328;43.992;2023-07-29T10:51:43;11.73;;;5.95;;
69246;SDS011;56358;56.328;43.992;2023-07-29T10:53:44;12.38;;;5.55;;
69246;SDS011;56358;56.328;43.992;2023-07-29T10:55:44;10.75;;;4.97;;
69246;SDS011;56358;56.328;43.992;2023-07-29T10:57:45;7.93;;;4.60;;
69246;SDS011;56358;56.328;43.992;2023-07-29T10:59:55;9.65;;;4.60;;
69246;SDS011;56358;56.328;43.992;2023-07-29T11:01:57;7.93;;;4.55;;
69246;SDS011;56358;56.328;43.992;2023-07-29T11:06:25;8.77;;;5.28;;
69246;SDS011;56358;56.328;43.992;2023-07-29T11:08:29;8.77;;;4.63;;
69246;SDS011;56358;56.328;43.992;2023-07-29T11:10:31;10.70;;;4.93;;
69246;SDS011;56358;56.328;43.992;2023-07-29T11:12:48;12.82;;;5.70;;
69246;SDS011;56358;56.328;43.992;2023-07-29T11:14:54;9.23;;;4.82;;
69246;SDS011;56358;56.328;43.992;2023-07-29T11:16:54;10.95;;;4.68;;
69246;SDS011;56358;56.328;43.992;2023-07-29T11:18:56;11.93;;;6.68;;
69246;SDS011;56358;56.328;43.992;2023-07-29T11:21:00;10.60;;;5.72;;
69246;SDS011;56358;56.328;43.992;2023-07-29T11:23:03;6.72;;;3.65;;
69246;SDS011;56358;56.328;43.992;2023-07-29T11:25:05;9.45;;;4.30;;
69246;SDS011;56358;56.328;43.992;2023-07-29T11:27:11;6.82;;;4.70;;
69246;SDS011;56358;56.328;43.992;2023-07-29T11:29:12;10.20;;;4.43;;
69246;SDS011;56358;56.328;43.992;2023-07-29T11:31:12;9.27;;;4.30;;
69246;SDS011;56358;56.328;43.992;2023-07-29T11:33:16;9.95;;;4.65;;
69246;SDS011;56358;56.328;43.992;2023-07-29T11:35:18;6.97;;;4.13;;
69246;SDS011;56358;56.328;43.992;2023-07-29T11:37:19;8.77;;;4.20;;
69246;SDS011;56358;56.328;43.992;2023-07-29T11:39:23;12.70;;;5.07;;
69246;SDS011;56358;56.328;43.992;2023-07-29T11:41:23;8.23;;;3.97;;
69246;SDS011;56358;56.328;43.992;2023-07-29T11:43:24;9.20;;;4.43;;
69246;SDS011;56358;56.328;43.992;2023-07-29T11:45:26;9.90;;;4.35;;
69246;SDS011;56358;56.328;43.992;2023-07-29T11:47:27;8.80;;;4.55;;
69246;SDS011;56358;56.328;43.992;2023-07-29T11:49:28;12.00;;;7.50;;
69246;SDS011;56358;56.328;43.992;2023-07-29T11:51:28;7.95;;;4.30;;
69246;SDS011;56358;56.328;43.992;2023-07-29T11:53:29;9.90;;;3.85;;
69246;SDS011;56358;56.328;43.992;2023-07-29T11:55:31;10.65;;;3.85;;
69246;SDS011;56358;56.328;43.992;2023-07-29T11:57:34;16.23;;;4.90;;
69246;SDS011;56358;56.328;43.992;2023-07-29T11:59:38;10.65;;;4.10;;
69246;SDS011;56358;56.328;43.992;2023-07-29T12:01:39;8.85;;;4.43;;
69246;SDS011;56358;56.328;43.992;2023-07-29T12:03:40;8.40;;;3.97;;
69246;SDS011;56358;56.328;43.992;2023-07-29T12:05:42;9.20;;;4.53;;
69246;SDS011;56358;56.328;43.992;2023-07-29T12:07:44;9.40;;;4.28;;
69246;SDS011;56358;56.328;43.992;2023-07-29T12:09:46;10.93;;;4.40;;
69246;SDS011;56358;56.328;43.992;2023-07-29T12:11:47;10.75;;;4.65;;
69246;SDS011;56358;56.328;43.992;2023-07-29T12:13:48;12.07;;;4.57;;
69246;SDS011;56358;56.328;43.992;2023-07-29T12:15:49;9.02;;;4.47;;
69246;SDS011;56358;56.328;43.992;2023-07-29T12:17:52;10.90;;;4.30;;
69246;SDS011;56358;56.328;43.992;2023-07-29T12:19:54;8.80;;;4.47;;